Terminal Aerodrome Forecast
Issued by NWS

Home | Current Version | Previous Version | Text Only | Print | Product List | Glossary On
Versions: 1 2 3 4 5 6 7 8 9 10 11 12 13 14 15 16 17 18 19 20 21 22 23 24 25 26 27 28 29 30
000
FTUS41 KOKX 241524 AAB
TAFSWF
TAF AMD
KSWF 241524Z 2415/2518 19010KT P6SM FEW150 SCT250
     FM241900 18010KT P6SM BKN250
     FM242300 15008KT P6SM OVC035
     FM250000 15007KT 5SM -RA OVC017
     FM250500 10008KT 3SM RA OVC005
      AMD NOT SKED=

USA.gov is the U.S. government's official web portal to all federal, state and local government web resources and services.